Time;durP1;ratioP1;P1;durP2;ratioP2;P2;SDS_P1;SDS_P2;PMS_P1;PMS_P2;Temp;Humidity;BMP_temperature;BMP_pressure;BME280_temperature;BME280_humidity;BME280_pressure;Samples;Min_cycle;Max_cycle;Signal;HPM_P1;HPM_P2
2022/01/27 00:05:17;;;;;;;46.50;29.55;;;5.50;99.90;;;;;;5050362;28;20037;-43
2022/01/27 00:07:44;;;;;;;46.33;30.17;;;5.50;99.90;;;;;;5051654;28;20035;-43
2022/01/27 00:12:36;;;;;;;44.28;27.38;;;5.50;99.90;;;;;;5051375;28;20753;-43
2022/01/27 00:15:11;;;;;;;44.13;28.98;;;5.50;99.90;;;;;;5050528;28;20501;-42
2022/01/27 00:17:56;;;;;;;45.35;26.77;;;5.60;99.90;;;;;;5051500;28;20017;-43
2022/01/27 00:20:22;;;;;;;41.25;26.35;;;5.50;99.90;;;;;;5051121;28;20028;-43
2022/01/27 00:22:47;;;;;;;39.15;25.45;;;5.50;99.90;;;;;;5050076;28;20021;-41
2022/01/27 00:25:13;;;;;;;40.55;26.58;;;5.60;99.90;;;;;;5050733;28;20484;-45
2022/01/27 00:27:39;;;;;;;41.35;26.27;;;5.60;99.90;;;;;;5050646;28;20150;-43
2022/01/27 00:30:08;;;;;;;38.72;24.05;;;5.50;99.90;;;;;;5049287;28;20097;-44
2022/01/27 00:32:34;;;;;;;36.38;24.95;;;5.60;99.90;;;;;;5050137;28;20555;-42
2022/01/27 00:35:00;;;;;;;38.30;24.52;;;5.60;99.90;;;;;;5050014;28;20043;-44
2022/01/27 00:37:26;;;;;;;32.67;21.98;;;5.60;99.90;;;;;;5049426;28;20021;-44
2022/01/27 00:39:52;;;;;;;38.72;23.50;;;5.60;99.90;;;;;;5050130;28;20801;-44
2022/01/27 00:42:18;;;;;;;36.08;23.30;;;5.60;99.90;;;;;;5049266;28;20063;-43
2022/01/27 00:44:43;;;;;;;34.92;22.60;;;5.60;99.90;;;;;;5049820;28;20071;-44
2022/01/27 00:47:09;;;;;;;34.60;22.23;;;5.60;99.90;;;;;;5049477;28;20745;-44
2022/01/27 00:49:36;;;;;;;34.35;21.88;;;5.60;99.90;;;;;;5049656;28;20496;-43
2022/01/27 00:52:03;;;;;;;31.88;21.85;;;5.60;99.90;;;;;;5048880;28;20051;-43
2022/01/27 00:54:30;;;;;;;32.17;20.70;;;5.70;99.90;;;;;;5049401;28;20079;-43
2022/01/27 00:57:05;;;;;;;32.47;21.10;;;5.70;99.90;;;;;;5049477;28;20025;-43
2022/01/27 00:59:51;;;;;;;33.53;20.33;;;5.70;99.90;;;;;;5049020;28;20024;-43
2022/01/27 01:05:43;;;;;;;35.65;21.27;;;5.70;99.90;;;;;;5048821;28;20036;-43
2022/01/27 01:07:50;;;;;;;31.17;20.35;;;5.70;99.90;;;;;;5048982;28;20053;-43
2022/01/27 01:11:05;;;;;;;36.22;22.73;;;5.80;99.90;;;;;;5048953;28;20287;-43
2022/01/27 01:15:51;;;;;;;40.55;24.40;;;5.70;99.90;;;;;;5049383;28;20496;-44
2022/01/27 01:32:08;;;;;;;39.65;24.65;;;5.70;99.90;;;;;;5049213;28;20079;-43
2022/01/27 01:34:34;;;;;;;37.95;23.48;;;5.70;99.90;;;;;;5048384;28;20052;-44
2022/01/27 01:37:03;;;;;;;38.80;23.83;;;5.70;99.90;;;;;;5048665;28;20443;-43
2022/01/27 01:39:34;;;;;;;37.78;24.25;;;5.70;99.90;;;;;;5048217;28;20053;-42
2022/01/27 01:42:02;;;;;;;44.75;27.15;;;5.70;99.90;;;;;;5049259;28;20032;-43
2022/01/27 01:44:28;;;;;;;38.28;26.10;;;5.60;99.90;;;;;;5048282;28;20036;-41
2022/01/27 01:46:54;;;;;;;41.55;26.00;;;5.60;99.90;;;;;;5047810;28;20024;-44
2022/01/27 01:49:23;;;;;;;42.35;25.83;;;5.60;99.90;;;;;;5048730;28;20029;-43
2022/01/27 01:51:49;;;;;;;37.83;24.48;;;5.50;99.90;;;;;;5048923;28;20049;-43
2022/01/27 01:54:15;;;;;;;40.22;26.77;;;5.50;99.90;;;;;;5047498;28;20048;-43
2022/01/27 01:56:42;;;;;;;39.40;24.85;;;5.50;99.90;;;;;;5048765;28;20079;-43
2022/01/27 01:59:08;;;;;;;40.70;25.08;;;5.60;99.90;;;;;;5048421;28;20025;-44
2022/01/27 02:01:35;;;;;;;34.70;23.40;;;5.60;99.90;;;;;;5047800;28;20396;-43
2022/01/27 02:04:06;;;;;;;38.35;24.15;;;5.60;99.90;;;;;;5047973;28;20476;-42
2022/01/27 02:06:40;;;;;;;36.45;24.73;;;5.60;99.90;;;;;;5048156;28;20056;-43
2022/01/27 02:09:34;;;;;;;38.63;24.83;;;5.60;99.90;;;;;;5047721;28;20025;-42
2022/01/27 02:20:12;;;;;;;38.53;25.40;;;5.60;99.90;;;;;;5048336;28;20075;-43
2022/01/27 02:22:39;;;;;;;37.45;24.25;;;5.60;99.90;;;;;;5047247;28;20053;-43
2022/01/27 02:25:06;;;;;;;39.85;25.58;;;5.60;99.90;;;;;;5047608;28;20025;-44
2022/01/27 02:27:32;;;;;;;38.78;24.90;;;5.60;99.90;;;;;;5047675;28;20025;-43
2022/01/27 02:29:57;;;;;;;41.10;26.30;;;5.60;99.90;;;;;;5047017;28;20032;-43
2022/01/27 02:32:24;;;;;;;42.25;26.08;;;5.60;99.90;;;;;;5047878;28;20021;-42
2022/01/27 02:34:50;;;;;;;45.83;25.42;;;5.50;99.90;;;;;;5047655;28;20526;-44
2022/01/27 02:37:16;;;;;;;37.53;25.25;;;5.60;99.90;;;;;;5046788;28;20074;-44
2022/01/27 02:39:41;;;;;;;40.58;26.95;;;5.50;99.90;;;;;;5047556;28;20021;-42
2022/01/27 02:42:28;;;;;;;39.22;25.52;;;5.60;99.90;;;;;;5048032;28;20056;-43
2022/01/27 02:44:53;;;;;;;42.08;25.20;;;5.60;99.90;;;;;;5042394;28;20480;-43
2022/01/27 02:47:21;;;;;;;34.42;22.35;;;5.50;99.90;;;;;;5047158;28;20037;-42
2022/01/27 02:49:47;;;;;;;37.33;24.77;;;5.60;99.90;;;;;;5047541;28;20032;-43
2022/01/27 02:52:14;;;;;;;40.08;24.10;;;5.60;99.90;;;;;;5047022;28;20049;-44
2022/01/27 02:54:39;;;;;;;40.17;25.90;;;5.60;99.90;;;;;;5047317;28;20044;-42
2022/01/27 02:57:05;;;;;;;35.72;24.27;;;5.60;99.90;;;;;;5047540;28;20021;-42
2022/01/27 02:59:31;;;;;;;37.60;25.23;;;5.60;99.90;;;;;;5047586;28;20035;-44
2022/01/27 03:01:57;;;;;;;35.58;23.95;;;5.60;99.90;;;;;;5048175;28;20028;-43
2022/01/27 03:04:23;;;;;;;36.22;23.42;;;5.60;99.90;;;;;;5047074;28;20110;-42
2022/01/27 03:06:49;;;;;;;40.42;24.70;;;5.60;99.90;;;;;;5048092;28;20028;-43
2022/01/27 03:09:15;;;;;;;38.22;25.02;;;5.60;99.90;;;;;;5047801;28;20025;-43
2022/01/27 03:11:51;;;;;;;36.13;24.63;;;5.60;99.90;;;;;;5046928;28;20017;-43
2022/01/27 03:14:19;;;;;;;38.35;25.38;;;5.70;99.90;;;;;;5047084;28;20037;-43
2022/01/27 03:16:45;;;;;;;36.42;24.02;;;5.60;99.90;;;;;;5047234;28;20083;-43
2022/01/27 03:19:11;;;;;;;33.45;23.02;;;5.70;99.90;;;;;;5044772;28;20033;-41
2022/01/27 03:21:37;;;;;;;34.15;23.25;;;5.70;99.90;;;;;;5038687;28;20021;-42
2022/01/27 03:24:03;;;;;;;36.95;22.50;;;5.60;99.90;;;;;;5047152;28;20060;-43
2022/01/27 03:26:29;;;;;;;36.08;23.23;;;5.70;99.90;;;;;;5045221;28;20025;-43
2022/01/27 03:28:55;;;;;;;36.03;23.27;;;5.70;99.90;;;;;;5047135;28;20078;-44
2022/01/27 03:31:21;;;;;;;34.00;23.27;;;5.70;99.90;;;;;;5046937;28;20025;-44
2022/01/27 03:33:47;;;;;;;39.00;24.33;;;5.70;99.90;;;;;;5046252;28;20481;-42
2022/01/27 03:36:13;;;;;;;36.38;23.75;;;5.70;99.90;;;;;;5046526;28;20079;-43
2022/01/27 03:38:39;;;;;;;35.50;24.27;;;5.60;99.90;;;;;;5047223;28;20037;-43
2022/01/27 03:41:07;;;;;;;37.95;24.40;;;5.70;99.90;;;;;;5046402;28;20021;-43
2022/01/27 03:43:33;;;;;;;35.65;25.33;;;5.70;99.90;;;;;;5045550;28;20024;-43
2022/01/27 03:45:59;;;;;;;36.88;23.42;;;5.70;99.90;;;;;;5047212;28;20029;-44
2022/01/27 03:48:25;;;;;;;36.65;23.13;;;5.70;99.90;;;;;;5045230;28;20391;-43
2022/01/27 03:50:50;;;;;;;35.20;23.88;;;5.70;99.90;;;;;;5047277;28;20026;-43
2022/01/27 03:53:16;;;;;;;36.42;24.55;;;5.70;99.90;;;;;;5045430;28;20029;-43
2022/01/27 03:55:42;;;;;;;34.45;24.15;;;5.70;99.90;;;;;;5046488;28;20029;-43
2022/01/27 03:58:08;;;;;;;37.15;23.77;;;5.70;99.90;;;;;;5046315;28;20025;-42
2022/01/27 04:00:34;;;;;;;37.50;24.63;;;5.70;99.90;;;;;;5046331;28;20090;-42
2022/01/27 04:05:33;;;;;;;36.55;23.35;;;5.80;99.90;;;;;;5046371;28;20480;-43
2022/01/27 04:07:58;;;;;;;34.43;23.33;;;5.80;99.90;;;;;;5045943;28;20472;-42
2022/01/27 04:10:24;;;;;;;34.28;23.20;;;5.80;99.90;;;;;;5046610;28;20291;-42
2022/01/27 04:12:50;;;;;;;35.90;23.38;;;5.80;99.90;;;;;;5046385;28;20025;-43
2022/01/27 04:15:15;;;;;;;34.20;24.33;;;5.80;99.90;;;;;;5045368;28;20431;-43
2022/01/27 04:17:41;;;;;;;36.25;23.15;;;5.80;99.90;;;;;;5046921;28;20017;-43
2022/01/27 04:20:06;;;;;;;32.33;21.70;;;5.80;99.90;;;;;;5046614;28;20443;-43
2022/01/27 04:22:32;;;;;;;33.17;22.92;;;5.80;99.90;;;;;;5046106;28;20029;-44
2022/01/27 04:24:57;;;;;;;36.45;22.98;;;5.80;99.90;;;;;;5046671;28;20169;-43
2022/01/27 04:27:29;;;;;;;32.95;21.75;;;5.80;99.90;;;;;;5046013;28;20017;-43
2022/01/27 04:29:55;;;;;;;36.45;23.73;;;5.80;99.90;;;;;;5046284;28;20080;-44
2022/01/27 04:32:25;;;;;;;34.85;23.20;;;5.90;99.90;;;;;;5045637;28;20495;-42
2022/01/27 04:34:53;;;;;;;35.97;23.30;;;5.80;99.90;;;;;;5046386;28;20097;-43
2022/01/27 04:37:22;;;;;;;38.80;24.35;;;5.90;99.90;;;;;;5048602;28;20029;-43
2022/01/27 04:39:59;;;;;;;36.08;22.92;;;5.80;99.90;;;;;;5049995;28;20032;-44
2022/01/27 04:42:41;;;;;;;35.25;23.60;;;5.80;99.90;;;;;;5028745;28;20033;-43
2022/01/27 04:45:08;;;;;;;36.43;23.07;;;5.80;99.90;;;;;;5046562;28;20753;-43
2022/01/27 04:47:40;;;;;;;32.08;20.90;;;5.80;99.90;;;;;;5049838;28;20260;-43
2022/01/27 04:50:05;;;;;;;38.00;22.75;;;5.80;99.90;;;;;;5049276;28;20033;-43
2022/01/27 04:52:35;;;;;;;32.47;22.25;;;5.80;99.90;;;;;;5049310;28;20869;-44
2022/01/27 04:57:28;;;;;;;38.25;22.92;;;5.80;99.90;;;;;;5048808;28;20029;-43
2022/01/27 04:59:54;;;;;;;32.67;20.27;;;5.80;99.90;;;;;;5049740;28;20029;-42
2022/01/27 05:02:30;;;;;;;36.88;21.88;;;5.90;99.90;;;;;;5049107;28;20025;-43
2022/01/27 05:04:55;;;;;;;35.92;21.90;;;5.90;99.90;;;;;;5049282;28;20021;-43
2022/01/27 05:07:21;;;;;;;37.83;22.75;;;5.90;99.90;;;;;;5048844;28;20041;-43
2022/01/27 05:09:54;;;;;;;33.25;20.65;;;5.80;99.90;;;;;;5049265;28;20029;-44
2022/01/27 05:12:32;;;;;;;35.67;21.75;;;5.90;99.90;;;;;;5048600;28;20568;-42
2022/01/27 05:14:59;;;;;;;32.20;21.42;;;5.90;99.90;;;;;;5049420;28;20522;-43
2022/01/27 05:17:25;;;;;;;35.28;21.58;;;5.90;99.90;;;;;;5048822;28;20021;-43
2022/01/27 05:19:51;;;;;;;30.10;19.63;;;5.90;99.90;;;;;;5048958;28;20089;-43
2022/01/27 05:22:16;;;;;;;29.27;19.10;;;5.90;99.90;;;;;;5048780;28;20032;-42
2022/01/27 05:24:42;;;;;;;32.20;20.60;;;5.90;99.90;;;;;;5048420;28;20557;-43
2022/01/27 05:27:08;;;;;;;33.33;20.00;;;5.90;99.90;;;;;;5049436;28;20393;-43
2022/01/27 05:29:33;;;;;;;32.53;19.63;;;5.90;99.90;;;;;;5049062;28;20488;-43
2022/01/27 05:31:59;;;;;;;32.47;20.17;;;5.90;99.90;;;;;;5048230;28;20483;-43
2022/01/27 05:34:24;;;;;;;30.00;19.60;;;6.00;99.90;;;;;;5048668;28;20072;-43
2022/01/27 05:36:50;;;;;;;34.10;20.90;;;5.90;99.90;;;;;;5048782;28;20040;-42
2022/01/27 05:39:15;;;;;;;34.38;19.45;;;6.00;99.90;;;;;;5047710;28;20147;-43
2022/01/27 05:41:42;;;;;;;28.77;18.67;;;6.00;99.90;;;;;;5048942;28;20032;-42
2022/01/27 05:44:08;;;;;;;32.80;18.55;;;6.00;99.90;;;;;;5048847;28;20052;-43
2022/01/27 05:46:34;;;;;;;29.85;18.88;;;6.00;99.90;;;;;;5047954;28;20060;-43
2022/01/27 05:48:59;;;;;;;32.50;19.60;;;6.00;99.90;;;;;;5047780;28;20055;-42
2022/01/27 05:51:25;;;;;;;31.48;18.52;;;6.10;99.90;;;;;;5047933;28;20436;-43
2022/01/27 05:53:50;;;;;;;26.67;17.08;;;6.10;99.90;;;;;;5048428;28;20025;-43
2022/01/27 05:56:16;;;;;;;26.95;16.80;;;6.10;99.90;;;;;;5047986;28;20036;-43
2022/01/27 05:58:41;;;;;;;28.27;17.38;;;6.10;99.90;;;;;;5048814;28;20677;-43
2022/01/27 06:01:07;;;;;;;28.95;17.88;;;6.10;99.90;;;;;;5048250;28;20781;-43
2022/01/27 06:03:33;;;;;;;30.05;17.67;;;6.10;99.90;;;;;;5048137;28;20027;-42
2022/01/27 06:05:58;;;;;;;28.17;16.65;;;6.10;99.90;;;;;;5048284;28;20361;-44
2022/01/27 06:08:25;;;;;;;25.38;17.10;;;6.10;99.90;;;;;;5047312;28;20020;-43
2022/01/27 06:10:51;;;;;;;28.85;15.68;;;6.10;99.90;;;;;;5048693;28;20021;-43
2022/01/27 06:13:16;;;;;;;25.63;15.98;;;6.10;99.90;;;;;;5047463;28;20078;-45
2022/01/27 06:15:42;;;;;;;29.63;17.63;;;6.10;99.90;;;;;;5048001;28;20033;-43
2022/01/27 06:18:07;;;;;;;26.52;16.05;;;6.10;99.90;;;;;;5048136;28;20023;-44
2022/01/27 06:20:33;;;;;;;27.38;15.88;;;6.20;99.90;;;;;;5047832;28;20039;-43
2022/01/27 06:22:59;;;;;;;27.17;15.80;;;6.20;99.90;;;;;;5047202;28;20036;-43
2022/01/27 06:25:27;;;;;;;24.77;14.60;;;6.20;99.90;;;;;;5048178;28;20059;-43
2022/01/27 06:27:53;;;;;;;30.20;15.55;;;6.20;99.90;;;;;;5047885;28;20024;-43
2022/01/27 06:30:19;;;;;;;26.00;15.07;;;6.30;99.90;;;;;;5047924;28;20033;-41
2022/01/27 06:32:44;;;;;;;24.58;14.55;;;6.30;99.90;;;;;;5048624;28;20377;-43
2022/01/27 06:35:10;;;;;;;25.85;14.30;;;6.40;99.90;;;;;;5047477;28;20466;-43
2022/01/27 06:37:36;;;;;;;25.33;14.48;;;6.40;99.90;;;;;;5048020;28;20033;-42
2022/01/27 06:40:03;;;;;;;30.58;15.70;;;6.40;99.90;;;;;;5049085;28;20017;-43
2022/01/27 06:42:29;;;;;;;28.08;15.15;;;6.40;99.90;;;;;;5045443;28;20091;-42
2022/01/27 06:44:55;;;;;;;25.77;14.60;;;6.50;99.90;;;;;;5047694;28;20059;-43
2022/01/27 06:47:21;;;;;;;26.52;14.88;;;6.50;99.90;;;;;;5048034;28;20467;-42
2022/01/27 06:49:47;;;;;;;26.90;15.13;;;6.50;99.90;;;;;;5042935;28;20013;-43
2022/01/27 06:52:13;;;;;;;30.27;15.45;;;6.60;99.90;;;;;;5047133;28;20048;-42
2022/01/27 06:54:39;;;;;;;29.55;16.35;;;6.60;99.90;;;;;;5047223;28;20029;-43
2022/01/27 06:57:05;;;;;;;27.77;16.38;;;6.60;99.90;;;;;;5047306;28;20101;-43
2022/01/27 06:59:31;;;;;;;23.50;13.38;;;6.70;99.90;;;;;;5045855;28;20122;-42
2022/01/27 07:01:57;;;;;;;26.17;14.70;;;6.70;99.90;;;;;;5047872;28;20495;-44
2022/01/27 07:04:23;;;;;;;24.30;14.75;;;6.70;99.90;;;;;;5044510;28;20021;-43
2022/01/27 07:06:49;;;;;;;28.60;15.32;;;6.70;99.90;;;;;;5047444;28;20033;-42
2022/01/27 07:09:14;;;;;;;30.92;16.77;;;6.70;99.90;;;;;;5046647;28;20017;-42
2022/01/27 07:11:40;;;;;;;28.70;15.75;;;6.70;99.90;;;;;;5046650;28;20506;-44
2022/01/27 07:14:06;;;;;;;32.10;15.63;;;6.70;99.90;;;;;;5046656;28;20025;-43
2022/01/27 07:16:33;;;;;;;25.65;15.85;;;6.70;99.90;;;;;;5046700;28;20057;-42
2022/01/27 07:18:59;;;;;;;28.95;15.38;;;6.80;99.90;;;;;;5046353;28;20098;-44
2022/01/27 07:21:24;;;;;;;27.70;15.38;;;6.70;99.90;;;;;;5046800;28;20060;-43
2022/01/27 07:23:50;;;;;;;28.73;15.93;;;6.70;99.90;;;;;;5046738;28;20102;-43
2022/01/27 07:26:16;;;;;;;26.15;15.88;;;6.70;99.90;;;;;;5046339;28;20025;-43
2022/01/27 07:28:42;;;;;;;26.63;15.68;;;6.60;99.90;;;;;;5047258;28;20017;-43
2022/01/27 07:31:07;;;;;;;29.45;16.10;;;6.60;99.90;;;;;;5047045;28;20108;-43
2022/01/27 07:33:33;;;;;;;31.40;16.63;;;6.60;99.90;;;;;;5047546;28;20120;-43
2022/01/27 07:35:59;;;;;;;30.77;16.92;;;6.50;99.90;;;;;;5047225;28;20047;-43
2022/01/27 07:38:26;;;;;;;29.45;17.23;;;6.50;99.90;;;;;;5045587;28;20029;-44
2022/01/27 07:40:52;;;;;;;31.40;17.52;;;6.50;99.90;;;;;;5047372;28;20033;-43
2022/01/27 07:43:18;;;;;;;26.73;16.90;;;6.40;99.90;;;;;;5047860;28;20021;-42
2022/01/27 07:45:43;;;;;;;29.98;17.40;;;6.40;99.90;;;;;;5046177;28;20033;-43
2022/01/27 07:48:09;;;;;;;29.70;17.42;;;6.40;99.90;;;;;;5047561;28;20025;-42
2022/01/27 07:50:35;;;;;;;31.23;17.15;;;6.40;99.90;;;;;;5047143;28;20029;-42
2022/01/27 07:53:01;;;;;;;34.58;18.08;;;6.40;99.90;;;;;;5047016;28;20053;-43
2022/01/27 07:55:26;;;;;;;26.85;17.42;;;6.40;99.90;;;;;;5043773;28;21020;-43
2022/01/27 07:57:52;;;;;;;29.85;16.67;;;6.40;99.90;;;;;;5046904;28;20025;-43
2022/01/27 08:00:18;;;;;;;26.30;16.13;;;6.40;99.90;;;;;;5045823;28;20032;-44
2022/01/27 08:02:45;;;;;;;30.77;17.70;;;6.40;99.90;;;;;;5047123;28;20032;-43
2022/01/27 08:05:11;;;;;;;26.88;17.10;;;6.40;99.90;;;;;;5046460;28;20133;-43
2022/01/27 08:07:36;;;;;;;27.23;17.02;;;6.40;99.90;;;;;;5046638;28;20433;-44
2022/01/27 08:10:02;;;;;;;27.08;16.65;;;6.40;99.90;;;;;;5047292;28;20025;-44
2022/01/27 08:12:28;;;;;;;26.52;17.08;;;6.40;99.90;;;;;;5048985;28;20025;-43
2022/01/27 08:14:53;;;;;;;27.85;16.50;;;6.40;99.90;;;;;;5049464;28;20488;-43
2022/01/27 08:17:19;;;;;;;25.70;16.73;;;6.40;99.90;;;;;;5050132;28;20021;-43
2022/01/27 08:19:44;;;;;;;30.08;16.70;;;6.50;99.90;;;;;;5051390;28;20591;-43
2022/01/27 08:22:12;;;;;;;26.67;15.18;;;6.40;99.90;;;;;;5050197;28;20075;-42
2022/01/27 08:24:39;;;;;;;23.65;15.65;;;6.50;99.90;;;;;;5050546;28;20104;-43
2022/01/27 08:27:07;;;;;;;25.23;15.98;;;6.50;99.90;;;;;;5050779;28;20491;-43
2022/01/27 08:29:38;;;;;;;24.90;17.33;;;6.50;99.90;;;;;;5049467;28;20112;-42
2022/01/27 08:32:08;;;;;;;28.58;15.90;;;6.50;99.90;;;;;;5051104;28;20024;-43
2022/01/27 08:37:04;;;;;;;27.77;16.05;;;6.50;99.90;;;;;;5051046;28;20079;-43
2022/01/27 08:39:30;;;;;;;27.23;16.80;;;6.50;99.90;;;;;;5049897;28;20480;-42
2022/01/27 08:41:56;;;;;;;23.42;15.55;;;6.50;99.90;;;;;;5049681;28;20047;-43
2022/01/27 08:44:22;;;;;;;23.85;15.93;;;6.50;99.90;;;;;;5050149;28;20469;-42
2022/01/27 08:46:47;;;;;;;25.73;16.35;;;6.60;99.90;;;;;;5050197;28;20053;-43
2022/01/27 08:49:13;;;;;;;29.63;17.75;;;6.60;99.90;;;;;;5050079;28;20708;-42
2022/01/27 08:51:39;;;;;;;23.98;15.40;;;6.60;99.90;;;;;;5049775;28;20126;-43
2022/01/27 08:54:05;;;;;;;26.58;16.85;;;6.60;99.90;;;;;;5050045;28;20052;-42
2022/01/27 08:56:30;;;;;;;26.25;15.55;;;6.60;99.90;;;;;;5049326;28;20114;-43
2022/01/27 08:58:56;;;;;;;27.67;15.63;;;6.70;99.90;;;;;;5049990;28;20502;-42
2022/01/27 09:01:24;;;;;;;27.08;15.73;;;6.70;99.90;;;;;;5049900;28;20518;-43
2022/01/27 09:03:50;;;;;;;23.25;15.88;;;6.70;99.90;;;;;;5049419;28;20017;-43
2022/01/27 09:06:18;;;;;;;26.73;15.35;;;6.70;99.90;;;;;;5049746;28;20029;-42
2022/01/27 09:08:44;;;;;;;24.13;15.73;;;6.70;99.90;;;;;;5050234;28;20411;-44
2022/01/27 09:11:10;;;;;;;28.77;15.10;;;6.70;99.90;;;;;;5049585;28;20074;-43
2022/01/27 09:13:37;;;;;;;24.30;15.13;;;6.70;99.90;;;;;;5049293;28;20021;-44
2022/01/27 09:16:04;;;;;;;21.77;14.07;;;6.80;99.90;;;;;;5050067;28;20037;-43
2022/01/27 09:18:29;;;;;;;20.80;14.52;;;6.80;99.90;;;;;;5048606;28;20039;-43
2022/01/27 09:20:58;;;;;;;24.70;14.55;;;6.80;99.90;;;;;;5050257;28;20028;-43
2022/01/27 09:23:23;;;;;;;24.15;13.88;;;6.80;99.90;;;;;;5048880;28;20025;-44
2022/01/27 09:25:50;;;;;;;21.27;14.23;;;6.80;99.90;;;;;;5048863;28;20021;-44
2022/01/27 09:28:16;;;;;;;21.92;15.18;;;6.80;99.90;;;;;;5047015;28;20036;-43
2022/01/27 09:30:43;;;;;;;20.60;13.45;;;6.80;99.90;;;;;;5049269;28;20464;-43
2022/01/27 09:33:09;;;;;;;21.58;13.32;;;6.90;99.90;;;;;;5048915;28;20032;-44
2022/01/27 09:35:35;;;;;;;19.20;12.02;;;6.90;99.90;;;;;;5048804;28;20166;-43
2022/01/27 09:38:01;;;;;;;21.02;12.88;;;6.90;99.90;;;;;;5049129;28;20073;-43
2022/01/27 09:40:28;;;;;;;19.33;12.05;;;6.90;99.90;;;;;;5048844;28;20480;-44
2022/01/27 09:42:55;;;;;;;20.65;12.15;;;7.00;99.90;;;;;;5049772;28;20055;-43
2022/01/27 09:45:22;;;;;;;20.65;12.40;;;7.00;99.90;;;;;;5048085;28;20025;-43
2022/01/27 09:47:57;;;;;;;17.02;11.65;;;7.00;99.90;;;;;;5049581;28;20021;-43
2022/01/27 09:50:34;;;;;;;15.88;10.80;;;7.00;99.90;;;;;;5048687;28;20033;-44
2022/01/27 09:52:59;;;;;;;17.05;11.98;;;7.00;99.90;;;;;;5028821;28;20121;-43
2022/01/27 09:55:25;;;;;;;16.58;11.13;;;7.00;99.90;;;;;;5046358;28;20128;-43
2022/01/27 09:57:54;;;;;;;17.13;11.68;;;7.00;99.90;;;;;;5049584;28;20484;-43
2022/01/27 10:00:21;;;;;;;17.60;10.73;;;7.10;99.90;;;;;;5047899;28;20100;-42
2022/01/27 10:03:13;;;;;;;15.35;10.55;;;7.10;99.90;;;;;;5049117;28;20044;-43
2022/01/27 10:05:41;;;;;;;16.35;11.73;;;7.10;99.90;;;;;;5048652;28;20025;-43
2022/01/27 10:08:11;;;;;;;17.23;11.85;;;7.20;99.90;;;;;;5048795;28;20024;-43
2022/01/27 10:10:40;;;;;;;16.55;11.32;;;7.10;99.90;;;;;;5048627;28;20025;-43
2022/01/27 10:13:07;;;;;;;16.48;11.02;;;7.20;99.90;;;;;;5048276;28;20067;-43
2022/01/27 10:15:37;;;;;;;15.93;10.52;;;7.20;99.90;;;;;;5048802;28;20913;-43
2022/01/27 10:18:08;;;;;;;17.13;9.80;;;7.20;99.90;;;;;;5048645;28;20379;-44
2022/01/27 10:20:36;;;;;;;13.35;9.27;;;7.30;99.90;;;;;;5048416;28;20441;-43
2022/01/27 10:23:11;;;;;;;14.20;9.63;;;7.30;99.90;;;;;;5048365;28;20538;-42
2022/01/27 10:25:46;;;;;;;16.50;9.50;;;7.30;99.90;;;;;;5047914;28;20029;-43
2022/01/27 10:28:28;;;;;;;13.05;8.90;;;7.40;99.90;;;;;;5047687;28;20017;-43
2022/01/27 10:31:10;;;;;;;10.98;8.02;;;7.40;99.90;;;;;;5048803;28;20033;-43
2022/01/27 10:33:47;;;;;;;12.25;8.90;;;7.40;99.90;;;;;;5047687;28;20025;-43
2022/01/27 10:36:33;;;;;;;11.32;8.40;;;7.50;99.90;;;;;;5047101;28;20511;-43
2022/01/27 10:39:08;;;;;;;9.60;7.95;;;7.50;99.90;;;;;;5048317;28;20028;-43
2022/01/27 10:41:36;;;;;;;10.60;8.13;;;7.50;99.90;;;;;;5047426;28;20025;-43
2022/01/27 10:44:10;;;;;;;10.27;8.68;;;7.50;99.90;;;;;;5048398;28;20059;-44
2022/01/27 10:46:39;;;;;;;11.38;9.20;;;7.50;99.90;;;;;;5047835;28;20025;-44
2022/01/27 10:49:11;;;;;;;13.18;9.60;;;7.50;99.90;;;;;;5047585;28;20089;-44
2022/01/27 10:51:49;;;;;;;11.15;9.27;;;7.50;99.90;;;;;;5047503;28;20128;-43
2022/01/27 10:54:20;;;;;;;12.15;9.73;;;7.60;99.90;;;;;;5047493;28;20097;-44
2022/01/27 10:56:47;;;;;;;13.90;9.77;;;7.60;99.90;;;;;;5047180;28;20044;-44
2022/01/27 10:59:19;;;;;;;13.77;9.93;;;7.60;99.90;;;;;;5047824;28;20048;-44
2022/01/27 11:01:48;;;;;;;13.65;10.13;;;7.60;99.90;;;;;;5047697;28;20032;-43
2022/01/27 11:04:14;;;;;;;13.38;10.20;;;7.60;99.90;;;;;;5046844;28;20024;-43
2022/01/27 11:06:55;;;;;;;13.73;10.50;;;7.70;99.90;;;;;;5048112;28;20021;-42
2022/01/27 11:09:21;;;;;;;15.70;11.25;;;7.70;99.90;;;;;;5046404;28;20029;-43
2022/01/27 11:11:49;;;;;;;17.58;11.25;;;7.70;99.90;;;;;;5047902;28;20048;-43
2022/01/27 11:14:15;;;;;;;15.32;12.18;;;7.70;99.90;;;;;;5036753;28;20036;-43
2022/01/27 11:16:43;;;;;;;18.13;12.10;;;7.80;99.90;;;;;;5047022;28;20033;-43
2022/01/27 11:19:33;;;;;;;19.08;12.52;;;7.80;99.90;;;;;;5047362;28;20021;-44
2022/01/27 11:22:05;;;;;;;18.73;12.18;;;7.80;99.90;;;;;;5052267;28;20371;-43
2022/01/27 11:27:32;;;;;;;16.23;11.20;;;7.90;99.90;;;;;;5046641;28;20060;-44
2022/01/27 11:30:19;;;;;;;15.70;11.52;;;7.90;99.90;;;;;;5048140;28;20032;-43
2022/01/27 11:32:59;;;;;;;18.55;13.13;;;8.00;99.90;;;;;;5047705;28;20021;-43
2022/01/27 11:35:26;;;;;;;18.02;12.70;;;8.00;99.90;;;;;;5046972;28;20039;-43
2022/01/27 11:37:54;;;;;;;16.83;11.98;;;8.00;99.90;;;;;;5046426;28;20025;-43
2022/01/27 11:40:23;;;;;;;16.15;11.77;;;8.10;99.90;;;;;;5046863;28;20400;-43
2022/01/27 11:42:54;;;;;;;14.55;12.15;;;8.10;99.90;;;;;;5047271;28;20495;-43
2022/01/27 11:45:23;;;;;;;17.42;11.85;;;8.20;99.90;;;;;;5035501;28;20029;-43
2022/01/27 11:48:22;;;;;;;22.80;13.80;;;8.20;99.90;;;;;;5051666;28;20047;-43
2022/01/27 11:50:55;;;;;;;20.67;12.88;;;8.20;99.90;;;;;;5044482;28;20442;-43
2022/01/27 11:53:40;;;;;;;21.20;13.00;;;8.30;99.90;;;;;;5049935;28;20041;-43
2022/01/27 11:56:24;;;;;;;21.85;14.20;;;8.30;99.90;;;;;;5051655;28;20037;-43
2022/01/27 11:58:52;;;;;;;20.80;13.80;;;8.20;99.90;;;;;;5050770;28;20033;-43
2022/01/27 12:01:27;;;;;;;16.75;13.73;;;8.30;99.90;;;;;;5050983;28;20531;-43
2022/01/27 12:04:15;;;;;;;23.60;13.82;;;8.30;99.90;;;;;;5051191;28;20024;-44
2022/01/27 12:06:50;;;;;;;19.52;12.98;;;8.30;99.90;;;;;;5051028;28;20491;-43
2022/01/27 12:09:19;;;;;;;25.95;14.38;;;8.30;99.90;;;;;;5050371;28;20028;-44
2022/01/27 12:11:51;;;;;;;24.30;14.23;;;8.40;99.90;;;;;;5051492;28;20032;-44
2022/01/27 12:14:21;;;;;;;22.20;14.87;;;8.40;99.90;;;;;;5050131;28;20029;-42
2022/01/27 12:17:08;;;;;;;18.63;13.77;;;8.30;99.90;;;;;;5050819;28;20391;-43
2022/01/27 12:19:48;;;;;;;21.40;13.88;;;8.40;99.90;;;;;;5049867;28;20033;-43
2022/01/27 12:22:15;;;;;;;17.25;12.45;;;8.40;99.90;;;;;;5051062;28;20037;-42
2022/01/27 12:24:51;;;;;;;16.00;12.23;;;8.40;99.90;;;;;;5050747;28;20108;-42
2022/01/27 12:27:18;;;;;;;15.90;12.18;;;8.40;99.90;;;;;;5049565;28;20539;-43
2022/01/27 12:29:55;;;;;;;18.58;13.63;;;8.40;99.90;;;;;;5051138;28;20060;-43
2022/01/27 12:32:29;;;;;;;19.33;13.73;;;8.40;99.90;;;;;;5050183;28;20025;-43
2022/01/27 12:34:58;;;;;;;21.65;13.73;;;8.40;99.90;;;;;;5049909;28;20033;-43
2022/01/27 12:37:34;;;;;;;22.70;14.00;;;8.40;99.90;;;;;;5050146;28;20932;-43
2022/01/27 12:40:05;;;;;;;18.65;13.00;;;8.40;99.90;;;;;;5050931;28;20151;-43
2022/01/27 12:42:36;;;;;;;19.65;12.57;;;8.50;99.90;;;;;;5049530;28;20036;-43
2022/01/27 12:45:14;;;;;;;18.00;12.25;;;8.50;99.90;;;;;;5050685;28;20036;-43
2022/01/27 12:47:48;;;;;;;19.95;12.55;;;8.50;99.90;;;;;;5050454;28;20036;-44
2022/01/27 12:50:21;;;;;;;17.75;12.65;;;8.50;99.90;;;;;;5049587;28;20017;-44
2022/01/27 12:52:47;;;;;;;21.48;12.20;;;8.50;99.90;;;;;;5050472;28;20132;-44
2022/01/27 12:55:18;;;;;;;17.98;11.93;;;8.50;99.90;;;;;;5049097;28;20032;-44
2022/01/27 12:57:54;;;;;;;16.95;10.77;;;8.60;99.90;;;;;;5039835;28;20024;-44
2022/01/27 13:00:20;;;;;;;20.00;12.65;;;8.60;99.90;;;;;;5049464;28;20098;-44
2022/01/27 13:02:45;;;;;;;18.85;11.00;;;8.70;99.90;;;;;;5049725;28;20017;-44
2022/01/27 13:05:11;;;;;;;17.85;10.15;;;8.80;99.90;;;;;;5049360;28;20483;-43
2022/01/27 13:07:37;;;;;;;13.60;9.32;;;8.90;99.90;;;;;;5050291;28;20021;-43
2022/01/27 13:10:18;;;;;;;19.00;11.48;;;8.90;99.90;;;;;;5049289;28;20372;-43
2022/01/27 13:12:53;;;;;;;23.05;11.45;;;8.90;99.90;;;;;;5050002;28;20040;-43
2022/01/27 13:15:22;;;;;;;22.38;10.50;;;9.00;99.90;;;;;;5049568;28;20041;-43
2022/01/27 13:18:10;;;;;;;21.05;11.32;;;9.00;99.90;;;;;;5048257;28;20060;-43
2022/01/27 13:20:41;;;;;;;20.48;10.70;;;9.00;99.90;;;;;;5049868;28;20103;-43
2022/01/27 13:23:22;;;;;;;16.30;9.75;;;9.00;99.90;;;;;;5045191;28;20021;-43
2022/01/27 13:25:59;;;;;;;15.13;8.38;;;8.90;99.90;;;;;;5050026;28;20052;-43
2022/01/27 13:28:32;;;;;;;16.42;11.35;;;9.00;99.90;;;;;;5046803;28;20021;-43
2022/01/27 13:31:13;;;;;;;15.38;8.90;;;9.00;99.90;;;;;;5049372;28;20029;-42